createdAt,value
2018-05-13T00:00:39.996Z,9.70
2018-05-13T00:03:07.559Z,11.20
2018-05-13T00:05:35.132Z,10.03
2018-05-13T00:08:02.738Z,10.73
2018-05-13T00:10:30.336Z,11.63
2018-05-13T00:12:57.920Z,12.43
2018-05-13T00:15:25.484Z,12.97
2018-05-13T00:17:53.078Z,10.07
2018-05-13T00:20:20.627Z,10.23
2018-05-13T00:22:48.192Z,15.37
2018-05-13T00:25:15.795Z,13.70
2018-05-13T00:27:43.356Z,12.37
2018-05-13T00:30:10.927Z,13.90
2018-05-13T00:32:38.496Z,12.20
2018-05-13T00:35:06.071Z,12.13
2018-05-13T00:37:34.563Z,12.10
2018-05-13T00:40:02.112Z,13.27
2018-05-13T00:42:30.448Z,12.00
2018-05-13T00:44:58.024Z,12.40
2018-05-13T00:47:25.616Z,11.30
2018-05-13T00:49:53.944Z,10.10
2018-05-13T00:52:21.519Z,11.30
2018-05-13T00:54:56.025Z,10.43
2018-05-13T00:57:23.650Z,10.87
2018-05-13T00:59:51.220Z,11.60
2018-05-13T01:02:18.936Z,9.67
2018-05-13T01:04:46.502Z,11.00
2018-05-13T01:07:14.090Z,9.70
2018-05-13T01:09:41.640Z,9.70
2018-05-13T01:12:09.961Z,9.73
2018-05-13T01:14:37.548Z,10.57
2018-05-13T01:17:05.166Z,10.67
2018-05-13T01:19:32.728Z,12.90
2018-05-13T01:22:00.267Z,9.03
2018-05-13T01:24:28.604Z,8.30
2018-05-13T01:26:56.160Z,8.63
2018-05-13T01:29:23.755Z,10.13
2018-05-13T01:31:52.075Z,8.87
2018-05-13T01:34:19.640Z,10.60
2018-05-13T01:36:47.283Z,7.97
2018-05-13T01:39:14.840Z,8.20
2018-05-13T01:41:42.380Z,9.50
2018-05-13T01:44:09.955Z,8.27
2018-05-13T01:46:37.507Z,8.47
2018-05-13T01:49:05.073Z,9.53
2018-05-13T01:51:32.628Z,8.63
2018-05-13T01:54:00.203Z,8.33
2018-05-13T01:56:27.802Z,7.83
2018-05-13T01:58:55.363Z,8.40
2018-05-13T02:01:22.935Z,8.87
2018-05-13T02:03:50.587Z,9.33
2018-05-13T02:06:18.165Z,9.13
2018-05-13T02:08:45.720Z,8.23
2018-05-13T02:11:13.289Z,10.03
2018-05-13T02:13:41.709Z,8.37
2018-05-13T02:16:09.272Z,8.60
2018-05-13T02:18:36.844Z,9.80
2018-05-13T02:21:04.419Z,7.47
2018-05-13T02:23:31.975Z,7.73
2018-05-13T02:25:59.562Z,7.70
2018-05-13T02:28:27.245Z,7.53
2018-05-13T02:30:55.783Z,9.40
2018-05-13T02:33:23.336Z,7.87
2018-05-13T02:35:50.917Z,7.50
2018-05-13T02:38:18.719Z,7.93
2018-05-13T02:40:46.264Z,8.17
2018-05-13T02:43:14.586Z,7.40
2018-05-13T02:45:42.157Z,8.43
2018-05-13T02:48:09.832Z,7.67
2018-05-13T02:50:37.392Z,9.63
2018-05-13T02:53:05.031Z,7.80
2018-05-13T02:55:32.527Z,7.90
2018-05-13T02:58:00.080Z,8.43
2018-05-13T03:00:27.640Z,9.17
2018-05-13T03:02:55.215Z,7.93
2018-05-13T03:05:22.764Z,7.63
2018-05-13T03:07:50.349Z,8.80
2018-05-13T03:10:18.721Z,7.73
2018-05-13T03:12:47.068Z,8.80
2018-05-13T03:15:14.636Z,10.47
2018-05-13T03:17:42.220Z,11.33
2018-05-13T03:20:10.536Z,9.87
2018-05-13T03:22:38.105Z,10.50
2018-05-13T03:25:05.654Z,9.23
2018-05-13T03:27:33.215Z,10.80
2018-05-13T03:30:00.805Z,9.73
2018-05-13T03:32:28.384Z,10.53
2018-05-13T03:34:55.970Z,12.17
2018-05-13T03:37:24.284Z,10.87
2018-05-13T03:39:51.850Z,9.53
2018-05-13T03:42:19.412Z,9.00
2018-05-13T03:44:46.966Z,9.67
2018-05-13T03:47:14.616Z,9.50
2018-05-13T03:49:42.176Z,11.73
2018-05-13T03:52:09.719Z,10.27
2018-05-13T03:54:37.435Z,9.77
2018-05-13T03:57:04.994Z,10.87
2018-05-13T03:59:32.620Z,9.83
2018-05-13T04:02:00.169Z,10.37
2018-05-13T04:04:27.847Z,11.13
2018-05-13T04:06:55.399Z,10.47
2018-05-13T04:09:34.804Z,11.27
2018-05-13T04:12:14.928Z,10.93
2018-05-13T04:17:44.081Z,9.73
2018-05-13T04:20:12.436Z,10.73
2018-05-13T04:22:39.984Z,10.43
2018-05-13T04:25:07.556Z,11.10
2018-05-13T04:27:35.185Z,9.33
2018-05-13T04:30:02.756Z,10.57
2018-05-13T04:32:30.308Z,9.13
2018-05-13T04:34:58.027Z,9.87
2018-05-13T04:37:26.363Z,10.43
2018-05-13T04:39:53.911Z,9.07
2018-05-13T04:42:21.483Z,9.10
2018-05-13T04:44:49.094Z,9.27
2018-05-13T04:47:17.449Z,9.13
2018-05-13T04:49:45.004Z,8.60
2018-05-13T04:52:12.637Z,8.57
2018-05-13T04:54:40.187Z,9.73
2018-05-13T04:57:07.748Z,9.73
2018-05-13T04:59:35.292Z,8.73
2018-05-13T05:02:02.859Z,9.93
2018-05-13T05:04:30.403Z,9.13
2018-05-13T05:06:57.964Z,8.87
2018-05-13T05:09:25.501Z,8.73
2018-05-13T05:11:53.844Z,10.03
2018-05-13T05:14:21.404Z,9.50
2018-05-13T05:16:49.067Z,8.77
2018-05-13T05:19:16.631Z,9.40
2018-05-13T05:21:44.291Z,9.47
2018-05-13T05:24:11.959Z,8.93
2018-05-13T05:26:39.524Z,9.93
2018-05-13T05:29:07.101Z,9.03
2018-05-13T05:31:35.452Z,9.57
2018-05-13T05:34:02.992Z,8.37
2018-05-13T05:36:30.548Z,9.67
2018-05-13T05:38:58.120Z,9.60
2018-05-13T05:41:25.676Z,10.17
2018-05-13T05:43:53.259Z,14.13
2018-05-13T05:46:20.812Z,10.37
2018-05-13T05:48:48.376Z,8.93
2018-05-13T05:51:15.930Z,9.53
2018-05-13T05:53:43.531Z,10.27
2018-05-13T05:56:11.091Z,10.27
2018-05-13T05:58:39.495Z,9.33
2018-05-13T06:01:07.044Z,8.47
2018-05-13T06:03:34.612Z,8.03
2018-05-13T06:06:02.169Z,7.50
2018-05-13T06:08:29.852Z,8.30
2018-05-13T06:10:57.386Z,7.60
2018-05-13T06:13:24.959Z,7.70
2018-05-13T06:15:52.538Z,6.90
2018-05-13T06:18:20.092Z,7.43
2018-05-13T06:20:47.664Z,6.80
2018-05-13T06:23:15.223Z,8.13
2018-05-13T06:25:42.795Z,9.43
2018-05-13T06:28:10.353Z,7.93
2018-05-13T06:30:37.904Z,9.07
2018-05-13T06:33:05.455Z,9.30
2018-05-13T06:35:33.016Z,9.53
2018-05-13T06:38:00.563Z,9.90
2018-05-13T06:40:28.119Z,10.13
2018-05-13T06:42:55.786Z,9.13
2018-05-13T06:45:23.383Z,13.27
2018-05-13T06:47:50.944Z,11.33
2018-05-13T06:50:18.511Z,12.43
2018-05-13T06:52:46.079Z,12.33
2018-05-13T06:55:13.648Z,12.13
2018-05-13T06:57:42.080Z,11.93
2018-05-13T07:00:09.619Z,13.03
2018-05-13T07:02:37.218Z,11.57
2018-05-13T07:05:04.839Z,12.70
2018-05-13T07:07:32.395Z,16.17
2018-05-13T07:09:59.963Z,16.83
2018-05-13T07:12:27.521Z,14.83
2018-05-13T07:14:55.084Z,18.80
2018-05-13T07:17:22.651Z,23.57
2018-05-13T07:19:50.251Z,23.73
2018-05-13T07:22:17.827Z,25.50
2018-05-13T07:24:46.207Z,21.17
2018-05-13T07:27:14.605Z,24.97
2018-05-13T07:29:42.250Z,22.53
2018-05-13T07:32:09.868Z,22.40
2018-05-13T07:34:37.437Z,25.20
2018-05-13T07:37:04.988Z,25.43
2018-05-13T07:39:32.576Z,26.13
2018-05-13T07:42:00.188Z,28.20
2018-05-13T07:44:27.847Z,28.10
2018-05-13T07:46:55.408Z,26.20
2018-05-13T07:49:23.036Z,24.93
2018-05-13T07:51:51.364Z,29.80
2018-05-13T07:54:19.079Z,27.73
2018-05-13T07:56:47.408Z,28.30
2018-05-13T07:59:14.971Z,28.47
2018-05-13T08:01:42.653Z,28.30
2018-05-13T08:04:10.224Z,29.03
2018-05-13T08:06:37.791Z,29.97
2018-05-13T08:09:06.496Z,29.63
2018-05-13T08:11:34.824Z,30.77
2018-05-13T08:14:02.419Z,30.97
2018-05-13T08:16:29.984Z,32.03
2018-05-13T08:18:58.303Z,33.83
2018-05-13T08:21:25.896Z,33.90
2018-05-13T08:23:53.464Z,36.07
2018-05-13T08:26:21.140Z,33.33
2018-05-13T08:28:48.768Z,35.53
2018-05-13T08:31:16.344Z,32.07
2018-05-13T08:33:43.892Z,36.30
2018-05-13T08:36:11.587Z,39.90
2018-05-13T08:38:39.156Z,36.10
2018-05-13T08:41:07.487Z,39.80
2018-05-13T08:43:35.171Z,36.70
2018-05-13T08:46:02.756Z,36.53
2018-05-13T08:48:31.111Z,34.73
2018-05-13T08:50:58.728Z,37.43
2018-05-13T08:53:26.283Z,41.87
2018-05-13T08:55:53.911Z,40.03
2018-05-13T08:58:22.304Z,41.07
2018-05-13T09:00:50.660Z,45.80
2018-05-13T09:03:18.252Z,45.37
2018-05-13T09:05:45.812Z,43.97
2018-05-13T09:08:13.382Z,46.33
2018-05-13T09:10:40.936Z,43.57
2018-05-13T09:13:08.584Z,43.33
2018-05-13T09:15:36.924Z,37.93
2018-05-13T09:18:04.497Z,42.17
2018-05-13T09:20:32.189Z,42.37
2018-05-13T09:22:59.803Z,44.27
2018-05-13T09:25:27.357Z,39.73
2018-05-13T09:27:54.954Z,40.20
2018-05-13T09:30:22.500Z,40.27
2018-05-13T09:32:50.852Z,44.67
2018-05-13T09:35:18.508Z,44.33
2018-05-13T09:37:46.154Z,43.60
2018-05-13T09:40:13.704Z,48.70
2018-05-13T09:42:41.405Z,54.60
2018-05-13T09:45:09.023Z,52.17
2018-05-13T09:47:36.588Z,46.43
2018-05-13T09:50:04.361Z,55.17
2018-05-13T09:52:31.933Z,55.20
2018-05-13T09:54:59.636Z,56.87
2018-05-13T09:57:27.208Z,54.43
2018-05-13T09:59:55.712Z,59.93
2018-05-13T10:02:23.316Z,53.80
2018-05-13T10:04:50.932Z,55.03
2018-05-13T10:07:18.511Z,58.10
2018-05-13T10:09:46.083Z,54.33
2018-05-13T10:12:13.655Z,56.43
2018-05-13T10:14:41.223Z,57.30
2018-05-13T10:17:08.788Z,57.70
2018-05-13T10:19:36.455Z,65.57
2018-05-13T10:22:03.935Z,58.27
2018-05-13T10:24:32.279Z,56.50
2018-05-13T10:26:59.915Z,64.30
2018-05-13T10:29:27.508Z,59.83
2018-05-13T10:31:55.086Z,62.20
2018-05-13T10:34:22.634Z,66.67
2018-05-13T10:36:50.208Z,62.80
2018-05-13T10:39:17.791Z,73.70
2018-05-13T10:41:45.611Z,73.53
2018-05-13T10:44:13.235Z,76.53
2018-05-13T10:46:40.792Z,75.97
2018-05-13T10:49:08.367Z,67.30
2018-05-13T10:51:35.952Z,70.40
2018-05-13T10:54:03.528Z,76.97
2018-05-13T10:56:31.196Z,70.43
2018-05-13T10:58:58.756Z,65.70
2018-05-13T11:01:26.380Z,66.73
2018-05-13T11:03:53.951Z,75.60
2018-05-13T11:06:21.513Z,81.03
2018-05-13T11:08:49.094Z,67.27
2018-05-13T11:11:16.660Z,70.83
2018-05-13T11:13:44.247Z,74.97
2018-05-13T11:16:12.621Z,68.10
2018-05-13T11:18:40.979Z,78.23
2018-05-13T11:21:08.560Z,75.00
2018-05-13T11:23:36.143Z,69.60
2018-05-13T11:26:03.767Z,67.83
2018-05-13T11:28:31.339Z,74.57
2018-05-13T11:30:59.683Z,79.67
2018-05-13T11:33:27.250Z,75.20
2018-05-13T11:35:55.621Z,79.33
2018-05-13T11:38:23.208Z,74.70
2018-05-13T11:40:51.528Z,96.53
2018-05-13T11:43:19.098Z,73.73
2018-05-13T11:45:46.652Z,69.83
2018-05-13T11:48:14.235Z,67.70
2018-05-13T11:50:41.822Z,78.57
2018-05-13T11:53:10.181Z,76.67
2018-05-13T11:55:37.752Z,69.83
2018-05-13T11:58:05.373Z,68.03
2018-05-13T12:00:32.947Z,71.30
2018-05-13T12:03:00.530Z,82.33
2018-05-13T12:05:28.248Z,75.13
2018-05-13T12:07:55.817Z,74.43
2018-05-13T12:10:23.407Z,70.13
2018-05-13T12:12:51.010Z,64.07
2018-05-13T12:15:18.598Z,71.43
2018-05-13T12:17:46.147Z,60.90
2018-05-13T12:20:13.868Z,64.93
2018-05-13T12:22:41.441Z,62.37
2018-05-13T12:25:09.780Z,70.10
2018-05-13T12:27:37.376Z,72.23
2018-05-13T12:30:04.979Z,72.17
2018-05-13T12:32:32.575Z,70.30
2018-05-13T12:35:00.432Z,67.40
2018-05-13T12:37:28.004Z,67.73
2018-05-13T12:39:55.568Z,58.27
2018-05-13T12:42:23.144Z,57.67
2018-05-13T12:44:51.494Z,58.37
2018-05-13T12:47:19.126Z,74.60
2018-05-13T12:49:46.772Z,54.80
2018-05-13T12:52:14.331Z,55.07
2018-05-13T12:54:41.924Z,53.53
2018-05-13T12:57:09.515Z,55.70
2018-05-13T12:59:37.852Z,54.87
2018-05-13T13:02:05.448Z,61.97
2018-05-13T13:04:33.175Z,49.67
2018-05-13T13:07:00.762Z,66.73
2018-05-13T13:09:28.449Z,63.27
2018-05-13T13:11:56.714Z,62.50
2018-05-13T13:14:24.291Z,55.13
2018-05-13T13:16:52.700Z,61.83
2018-05-13T13:19:20.273Z,64.63
2018-05-13T13:21:47.856Z,58.03
2018-05-13T13:24:15.419Z,70.90
2018-05-13T13:26:43.025Z,63.70
2018-05-13T13:29:11.356Z,64.03
2018-05-13T13:31:38.931Z,66.37
2018-05-13T13:34:06.592Z,55.40
2018-05-13T13:36:34.188Z,58.10
2018-05-13T13:39:02.537Z,75.73
2018-05-13T13:41:30.094Z,64.27
2018-05-13T13:43:57.658Z,63.43
2018-05-13T13:46:25.356Z,49.30
2018-05-13T13:48:52.936Z,51.20
2018-05-13T13:51:20.496Z,60.17
2018-05-13T13:53:48.106Z,67.70
2018-05-13T13:56:15.676Z,65.97
2018-05-13T13:58:44.044Z,57.27
2018-05-13T14:01:11.809Z,52.17
2018-05-13T14:03:39.441Z,56.30
2018-05-13T14:06:07.020Z,56.37
2018-05-13T14:08:34.617Z,60.23
2018-05-13T14:11:02.956Z,53.53
2018-05-13T14:13:31.317Z,46.50
2018-05-13T14:15:58.919Z,42.23
2018-05-13T14:18:27.273Z,41.87
2018-05-13T14:20:55.713Z,40.77
2018-05-13T14:23:23.188Z,46.53
2018-05-13T14:25:50.776Z,41.73
2018-05-13T14:28:18.360Z,47.30
2018-05-13T14:30:46.736Z,45.67
2018-05-13T14:33:15.043Z,44.27
2018-05-13T14:35:42.592Z,67.90
2018-05-13T14:38:10.159Z,45.30
2018-05-13T14:40:37.736Z,41.07
2018-05-13T14:43:05.300Z,48.60
2018-05-13T14:45:33.053Z,55.23
2018-05-13T14:48:00.609Z,54.03
2018-05-13T14:50:28.394Z,52.03
2018-05-13T14:52:55.978Z,47.27
2018-05-13T14:55:23.552Z,49.07
2018-05-13T14:57:51.935Z,44.17
2018-05-13T15:00:20.300Z,47.73
2018-05-13T15:02:47.911Z,48.10
2018-05-13T15:05:15.591Z,56.07
2018-05-13T15:07:43.083Z,53.37
2018-05-13T15:10:10.657Z,53.77
2018-05-13T15:12:39.124Z,63.67
2018-05-13T15:15:06.722Z,59.40
2018-05-13T15:17:35.142Z,46.87
2018-05-13T15:20:02.733Z,45.47
2018-05-13T15:22:34.346Z,48.67
2018-05-13T15:25:02.030Z,51.03
2018-05-13T15:27:29.649Z,49.90
2018-05-13T15:29:57.244Z,48.77
2018-05-13T15:32:24.835Z,47.90
2018-05-13T15:34:52.534Z,49.23
2018-05-13T15:37:20.152Z,51.13
2018-05-13T15:39:47.717Z,51.70
2018-05-13T15:42:15.270Z,52.30
2018-05-13T15:44:42.836Z,63.07
2018-05-13T15:47:10.404Z,55.97
2018-05-13T15:49:38.853Z,68.77
2018-05-13T15:52:06.415Z,77.70
2018-05-13T15:54:34.016Z,66.97
2018-05-13T15:57:02.361Z,54.47
2018-05-13T15:59:29.960Z,65.53
2018-05-13T16:01:58.296Z,74.73
2018-05-13T16:04:25.880Z,65.27
2018-05-13T16:06:54.215Z,69.87
2018-05-13T16:09:21.776Z,74.57
2018-05-13T16:11:49.398Z,58.23
2018-05-13T16:14:17.730Z,60.17
2018-05-13T16:16:45.287Z,63.77
2018-05-13T16:19:13.055Z,56.93
2018-05-13T16:21:40.672Z,61.30
2018-05-13T16:24:08.212Z,54.87
2018-05-13T16:26:36.560Z,56.37
2018-05-13T16:29:04.166Z,63.83
2018-05-13T16:31:31.747Z,53.83
2018-05-13T16:33:59.335Z,66.27
2018-05-13T16:36:26.934Z,65.30
2018-05-13T16:38:55.282Z,58.73
2018-05-13T16:41:22.871Z,61.27
2018-05-13T16:43:51.192Z,56.23
2018-05-13T16:46:18.848Z,70.70
2018-05-13T16:48:46.354Z,59.93
2018-05-13T16:51:13.911Z,62.97
2018-05-13T16:53:41.488Z,57.53
2018-05-13T16:56:09.078Z,48.43
2018-05-13T16:58:36.677Z,60.57
2018-05-13T17:01:04.254Z,52.87
2018-05-13T17:03:31.840Z,55.30
2018-05-13T17:05:59.465Z,58.47
2018-05-13T17:08:27.082Z,55.50
2018-05-13T17:10:54.650Z,60.47
2018-05-13T17:13:22.243Z,55.87
2018-05-13T17:15:49.812Z,55.77
2018-05-13T17:18:17.391Z,48.80
2018-05-13T17:20:45.789Z,54.43
2018-05-13T17:23:13.544Z,56.63
2018-05-13T17:25:41.042Z,63.63
2018-05-13T17:28:08.636Z,54.97
2018-05-13T17:30:36.215Z,55.27
2018-05-13T17:33:03.809Z,50.30
2018-05-13T17:35:31.404Z,55.83
2018-05-13T17:37:59.012Z,51.90
2018-05-13T17:40:26.575Z,65.97
2018-05-13T17:42:54.164Z,53.93
2018-05-13T17:45:21.743Z,65.00
2018-05-13T17:47:49.336Z,63.17
2018-05-13T17:50:16.927Z,64.63
2018-05-13T17:52:44.504Z,63.40
2018-05-13T17:55:12.079Z,77.00
2018-05-13T17:57:39.672Z,78.03
2018-05-13T18:00:07.997Z,80.27
2018-05-13T18:02:35.679Z,77.23
2018-05-13T18:05:03.310Z,96.27
2018-05-13T18:07:30.875Z,92.90
2018-05-13T18:09:58.536Z,120.60
2018-05-13T18:12:26.017Z,113.43
2018-05-13T18:14:53.621Z,134.50
2018-05-13T18:17:21.969Z,123.73
2018-05-13T18:19:49.595Z,118.93
2018-05-13T18:22:17.218Z,119.47
2018-05-13T18:24:44.997Z,114.23
2018-05-13T18:27:12.525Z,90.03
2018-05-13T18:29:40.101Z,93.20
2018-05-13T18:32:07.679Z,80.50
2018-05-13T18:34:36.015Z,89.13
2018-05-13T18:37:03.623Z,85.37
2018-05-13T18:39:31.969Z,112.20
2018-05-13T18:41:59.540Z,77.20
2018-05-13T18:44:27.130Z,89.80
2018-05-13T18:46:54.712Z,70.90
2018-05-13T18:49:22.276Z,79.43
2018-05-13T18:51:49.876Z,79.37
2018-05-13T18:54:17.436Z,84.50
2018-05-13T18:56:45.024Z,78.53
2018-05-13T18:59:12.652Z,70.70
2018-05-13T19:01:40.176Z,72.30
2018-05-13T19:04:07.917Z,68.03
2018-05-13T19:06:35.536Z,79.00
2018-05-13T19:09:03.256Z,82.37
2018-05-13T19:11:30.936Z,92.57
2018-05-13T19:13:58.506Z,87.03
2018-05-13T19:16:26.081Z,83.03
2018-05-13T19:18:53.664Z,82.83
2018-05-13T19:21:22.179Z,87.27
2018-05-13T19:23:49.780Z,91.20
2018-05-13T19:26:17.481Z,75.03
2018-05-13T19:28:45.845Z,75.67
2018-05-13T19:31:14.263Z,75.27
2018-05-13T19:33:41.850Z,78.93
2018-05-13T19:36:09.468Z,94.20
2018-05-13T19:38:37.804Z,93.23
2018-05-13T19:41:05.464Z,87.07
2018-05-13T19:43:33.144Z,91.30
2018-05-13T19:46:00.764Z,93.97
2018-05-13T19:48:28.340Z,94.93
2018-05-13T19:50:55.896Z,91.40
2018-05-13T19:53:23.511Z,103.70
2018-05-13T19:55:51.868Z,104.73
2018-05-13T19:58:19.436Z,98.50
2018-05-13T20:00:47.777Z,109.70
2018-05-13T20:03:15.501Z,111.20
2018-05-13T20:05:43.005Z,113.73
2018-05-13T20:08:10.579Z,105.60
2018-05-13T20:10:38.290Z,93.77
2018-05-13T20:13:05.852Z,117.37
2018-05-13T20:15:33.523Z,107.97
2018-05-13T20:18:01.044Z,104.43
2018-05-13T20:20:29.380Z,108.83
2018-05-13T20:23:08.732Z,104.40
2018-05-13T20:25:36.293Z,115.20
2018-05-13T20:28:03.863Z,124.93
2018-05-13T20:30:31.513Z,124.00
2018-05-13T20:32:59.084Z,127.17
2018-05-13T20:35:26.673Z,117.20
2018-05-13T20:37:55.025Z,117.63
2018-05-13T20:40:22.600Z,124.17
2018-05-13T20:42:50.932Z,127.20
2018-05-13T20:45:18.572Z,132.47
2018-05-13T20:47:46.148Z,133.67
2018-05-13T20:50:13.712Z,128.83
2018-05-13T20:52:41.388Z,116.23
2018-05-13T20:55:08.971Z,121.17
2018-05-13T20:57:36.558Z,113.07
2018-05-13T21:00:04.139Z,121.23
2018-05-13T21:02:31.715Z,120.03
2018-05-13T21:04:59.296Z,128.73
2018-05-13T21:07:27.052Z,125.17
2018-05-13T21:09:54.654Z,124.83
2018-05-13T21:12:23.003Z,121.63
2018-05-13T21:14:50.575Z,116.30
2018-05-13T21:17:18.177Z,124.60
2018-05-13T21:19:45.747Z,122.97
2018-05-13T21:22:13.332Z,124.10
2018-05-13T21:24:40.919Z,128.97
2018-05-13T21:27:08.531Z,125.97
2018-05-13T21:29:36.095Z,115.37
2018-05-13T21:32:03.684Z,114.83
2018-05-13T21:34:31.346Z,99.73
2018-05-13T21:36:58.896Z,121.57
2018-05-13T21:39:26.467Z,105.63
2018-05-13T21:41:54.016Z,138.03
2018-05-13T21:44:21.643Z,130.07
2018-05-13T21:46:49.290Z,132.13
2018-05-13T21:49:16.789Z,139.33
2018-05-13T21:51:44.360Z,140.63
2018-05-13T21:54:11.936Z,118.43
2018-05-13T21:56:39.514Z,135.13
2018-05-13T21:59:07.985Z,136.30
2018-05-13T22:01:35.614Z,122.53
2018-05-13T22:04:03.180Z,105.73
2018-05-13T22:06:30.728Z,161.00
2018-05-13T22:08:58.307Z,112.90
2018-05-13T22:11:25.875Z,109.03
2018-05-13T22:13:53.465Z,121.20
2018-05-13T22:16:21.783Z,113.73
2018-05-13T22:18:49.351Z,129.07
2018-05-13T22:21:16.933Z,140.77
2018-05-13T22:23:44.512Z,120.47
2018-05-13T22:26:12.843Z,146.23
2018-05-13T22:28:40.400Z,145.53
2018-05-13T22:31:08.041Z,135.23
2018-05-13T22:33:35.716Z,152.90
2018-05-13T22:36:03.268Z,130.13
2018-05-13T22:38:30.877Z,143.03
2018-05-13T22:40:58.464Z,148.30
2018-05-13T22:43:26.794Z,150.60
2018-05-13T22:45:54.356Z,147.57
2018-05-13T22:48:21.935Z,141.93
2018-05-13T22:50:49.515Z,130.40
2018-05-13T22:53:17.848Z,137.97
2018-05-13T22:55:45.433Z,135.03
2018-05-13T22:58:12.996Z,155.77
2018-05-13T23:00:40.559Z,148.40
2018-05-13T23:03:08.126Z,136.37
2018-05-13T23:05:36.539Z,144.43
2018-05-13T23:08:04.069Z,138.23
2018-05-13T23:10:31.619Z,154.73
2018-05-13T23:12:59.197Z,151.13
2018-05-13T23:15:27.521Z,155.53
2018-05-13T23:17:55.163Z,136.13
2018-05-13T23:20:22.814Z,159.80
2018-05-13T23:22:50.337Z,140.30
2018-05-13T23:25:17.900Z,159.50
2018-05-13T23:27:45.444Z,148.43
2018-05-13T23:30:13.017Z,151.37
2018-05-13T23:32:40.579Z,178.77
2018-05-13T23:35:08.147Z,153.97
2018-05-13T23:37:36.500Z,195.23
2018-05-13T23:40:04.228Z,174.97
2018-05-13T23:42:31.778Z,144.83
2018-05-13T23:44:59.360Z,191.33
2018-05-13T23:47:26.920Z,188.87
2018-05-13T23:49:54.490Z,177.20
2018-05-13T23:52:22.127Z,185.60
2018-05-13T23:54:49.657Z,222.50
2018-05-13T23:57:17.973Z,196.03
2018-05-13T23:59:45.611Z,213.43
